Roper, Kansas
Current Conditions -  °F | °C
As of 3:52 AM on Saturday 20 Dec 2014 (Local Time) from KCNU Reporting Station
Haze Haze  
Wind Chill: 31°   Ceiling: 1700
Heat Index: 35°   Visibility: 5mi
Dew Point: 34°   Wind: 5mph
Humidity: 96%   Direction: 190°S
Pressure: 30.21"   Gusts: NA
Location:  37.634°N, 95.6326°W
Report Text: KCNU 200952Z AUTO 19004KT 5SM BR OVC017 02/01 A3021 RMK AO2 SLP235 T00170011
Loading
Personal Weather Stations






























Interactive Weather Map New forecast layout! Learn more

10-Day Weather Forecast

Advertisements
Track Severe Weather on mobile